createdAt,value
2023-03-12T00:05:52.459Z,998.76
2023-03-12T00:15:58.644Z,998.87
2023-03-12T00:26:04.998Z,998.95
2023-03-12T00:36:11.228Z,998.93
2023-03-12T00:46:19.015Z,998.92
2023-03-12T00:56:25.161Z,998.91
2023-03-12T01:06:30.885Z,998.97
2023-03-12T01:16:37.161Z,999.05
2023-03-12T01:26:43.037Z,998.92
2023-03-12T01:36:49.315Z,998.91
2023-03-12T01:46:55.508Z,998.92
2023-03-12T01:57:01.418Z,998.86
2023-03-12T02:07:07.951Z,998.83
2023-03-12T02:17:13.877Z,998.89
2023-03-12T02:27:19.984Z,998.87
2023-03-12T02:37:26.089Z,998.92
2023-03-12T02:47:33.030Z,998.92
2023-03-12T02:57:38.951Z,999.06
2023-03-12T03:07:45.173Z,999.03
2023-03-12T03:17:51.277Z,999.06
2023-03-12T03:27:57.225Z,999.06
2023-03-12T03:38:03.308Z,999.05
2023-03-12T03:48:09.012Z,999.04
2023-03-12T03:58:15.109Z,999.05
2023-03-12T04:08:21.262Z,999.23
2023-03-12T04:18:27.402Z,999.28
2023-03-12T04:28:33.738Z,999.29
2023-03-12T04:38:39.863Z,999.11
2023-03-12T04:48:46.563Z,999.05
2023-03-12T04:58:53.450Z,999.05
2023-03-12T05:09:00.082Z,999.00
2023-03-12T05:19:06.409Z,999.09
2023-03-12T05:29:13.052Z,999.05
2023-03-12T05:39:19.844Z,999.02
2023-03-12T05:49:26.185Z,999.10
2023-03-12T05:59:32.697Z,999.15
2023-03-12T06:09:39.319Z,999.10
2023-03-12T06:19:45.350Z,999.04
2023-03-12T06:29:51.803Z,999.04
2023-03-12T06:39:58.570Z,998.98
2023-03-12T06:50:04.955Z,998.86
2023-03-12T07:00:11.462Z,998.80
2023-03-12T07:10:18.037Z,998.84
2023-03-12T07:20:24.936Z,998.74
2023-03-12T07:30:31.761Z,998.69
2023-03-12T07:40:38.348Z,998.66
2023-03-12T07:50:41.807Z,998.80
2023-03-12T08:00:44.418Z,998.76
2023-03-12T08:10:52.334Z,998.63
2023-03-12T08:21:02.078Z,998.52
2023-03-12T08:31:09.678Z,998.28
2023-03-12T08:41:16.732Z,998.15
2023-03-12T08:51:23.871Z,997.97
2023-03-12T09:01:30.068Z,997.84
2023-03-12T09:11:37.052Z,997.69
2023-03-12T09:21:44.010Z,997.63
2023-03-12T09:31:50.688Z,997.60
2023-03-12T09:41:57.033Z,997.28
2023-03-12T09:52:03.908Z,997.29
2023-03-12T10:02:10.228Z,997.25
2023-03-12T10:12:16.240Z,997.27
2023-03-12T10:22:23.242Z,997.23
2023-03-12T10:32:29.768Z,996.97
2023-03-12T10:42:36.467Z,996.94
2023-03-12T10:52:42.532Z,996.92
2023-03-12T11:02:48.884Z,996.85
2023-03-12T11:12:57.080Z,996.98
2023-03-12T11:23:03.596Z,996.90
2023-03-12T11:33:13.171Z,996.84
2023-03-12T11:43:32.343Z,996.59
2023-03-12T11:53:30.691Z,996.49
2023-03-12T12:03:40.110Z,996.34
2023-03-12T12:13:46.517Z,996.18
2023-03-12T12:23:53.128Z,995.96
2023-03-12T12:33:59.394Z,995.80
2023-03-12T12:44:06.685Z,995.70
2023-03-12T12:54:13.476Z,995.57
2023-03-12T13:04:20.272Z,995.51
2023-03-12T13:14:26.358Z,995.34
2023-03-12T13:24:32.794Z,995.30
2023-03-12T13:34:39.333Z,995.40
2023-03-12T13:44:45.522Z,995.35
2023-03-12T13:54:52.362Z,995.50
2023-03-12T14:04:58.976Z,995.39
2023-03-12T14:15:04.936Z,995.28
2023-03-12T14:25:12.080Z,995.20
2023-03-12T14:35:18.566Z,995.26
2023-03-12T14:45:25.264Z,995.34
2023-03-12T14:55:32.420Z,995.27
2023-03-12T15:05:38.086Z,995.08
2023-03-12T15:15:44.537Z,995.19
2023-03-12T15:25:50.513Z,995.05
2023-03-12T15:35:57.281Z,995.06
2023-03-12T15:46:03.687Z,995.02
2023-03-12T15:56:10.146Z,995.01
2023-03-12T16:06:17.027Z,995.15
2023-03-12T16:16:23.456Z,995.26
2023-03-12T16:26:29.866Z,995.41
2023-03-12T16:36:37.046Z,995.50
2023-03-12T16:46:43.852Z,995.43
2023-03-12T16:56:50.230Z,995.44
2023-03-12T17:06:57.732Z,995.57
2023-03-12T17:17:04.438Z,995.54
2023-03-12T17:27:11.231Z,995.54
2023-03-12T17:37:17.679Z,995.66
2023-03-12T17:47:24.431Z,995.68
2023-03-12T17:57:30.913Z,995.87
2023-03-12T18:07:37.845Z,996.01
2023-03-12T18:17:44.806Z,996.04
2023-03-12T18:27:51.181Z,995.98
2023-03-12T18:37:57.775Z,996.02
2023-03-12T18:48:04.399Z,995.98
2023-03-12T18:58:10.699Z,996.04
2023-03-12T19:08:17.392Z,995.98
2023-03-12T19:18:24.181Z,996.01
2023-03-12T19:28:30.765Z,995.98
2023-03-12T19:38:37.139Z,995.93
2023-03-12T19:48:43.716Z,995.80
2023-03-12T19:58:50.121Z,995.93
2023-03-12T20:08:56.709Z,996.02
2023-03-12T20:19:03.279Z,996.03
2023-03-12T20:29:09.970Z,996.11
2023-03-12T20:39:16.498Z,996.16
2023-03-12T20:49:23.381Z,996.08
2023-03-12T20:59:29.941Z,995.87
2023-03-12T21:09:36.514Z,995.77
2023-03-12T21:19:42.740Z,995.64
2023-03-12T21:29:49.526Z,995.36
2023-03-12T21:39:55.630Z,995.42
2023-03-12T21:50:02.064Z,995.47
2023-03-12T22:00:08.393Z,995.52
2023-03-12T22:10:14.868Z,995.51
2023-03-12T22:20:21.050Z,995.34
2023-03-12T22:30:26.988Z,995.13
2023-03-12T22:40:32.819Z,995.27
2023-03-12T22:50:38.945Z,995.15
2023-03-12T23:00:44.885Z,995.01
2023-03-12T23:10:50.912Z,995.04
2023-03-12T23:20:57.093Z,994.96
2023-03-12T23:31:03.286Z,994.88
2023-03-12T23:41:09.334Z,994.91
2023-03-12T23:51:15.578Z,994.83
